Time,TemperatureF,DewpointF,PressureIn,WindDirection,WindDirectionDegrees,WindSpeedMPH,WindSpeedGustMPH,Humidity,HourlyPrecipIn,Conditions,Clouds,dailyrainin,SoftwareType,DateUTC
2013-05-04 00:01:00,33.5,31.6,29.83,NNW,338,3.1,3.1,93,0.01,,,0.00,WUHU216HW,2013-05-04 05:01:00,
2013-05-04 00:06:00,33.5,31.6,29.83,NW,315,1.1,3.1,93,0.01,,,0.00,WUHU216HW,2013-05-04 05:06:00,
2013-05-04 00:11:00,33.5,31.6,29.83,North,0,4.3,4.3,93,0.01,,,0.00,WUHU216HW,2013-05-04 05:11:00,
2013-05-04 00:16:00,33.5,31.6,29.83,NW,315,3.4,4.3,93,0.01,,,0.00,WUHU216HW,2013-05-04 05:16:00,
2013-05-04 00:21:00,33.5,31.6,29.82,NNW,338,2.7,4.3,93,0.01,,,0.00,WUHU216HW,2013-05-04 05:21:00,
2013-05-04 00:26:00,33.5,31.6,29.83,NNW,338,4.9,4.9,93,0.01,,,0.00,WUHU216HW,2013-05-04 05:26:00,
2013-05-04 00:31:00,33.7,31.8,29.82,NNW,338,2.7,4.9,93,0.02,,,0.01,WUHU216HW,2013-05-04 05:31:00,
2013-05-04 00:36:00,33.5,31.6,29.82,NW,315,0.7,6.7,93,0.02,,,0.01,WUHU216HW,2013-05-04 05:36:00,
2013-05-04 00:41:00,33.5,31.6,29.82,North,0,0.4,6.7,93,0.01,,,0.01,WUHU216HW,2013-05-04 05:41:00,
2013-05-04 00:46:00,33.5,31.6,29.82,North,0,5.1,5.1,93,0.01,,,0.01,WUHU216HW,2013-05-04 05:46:00,
2013-05-04 00:51:00,33.3,31.4,29.82,NW,315,2.5,6.5,93,0.01,,,0.01,WUHU216HW,2013-05-04 05:51:00,
2013-05-04 00:56:00,33.1,31.3,29.82,North,0,1.8,6.5,93,0.01,,,0.01,WUHU216HW,2013-05-04 05:56:00,
2013-05-04 01:01:00,33.1,31.3,29.82,NW,315,1.8,4.0,93,0.01,,,0.01,WUHU216HW,2013-05-04 06:01:00,
2013-05-04 01:06:00,32.9,31.2,29.82,NW,315,0.7,1.8,93,0.01,,,0.01,WUHU216HW,2013-05-04 06:06:00,
2013-05-04 01:11:00,32.9,31.2,29.81,WNW,293,1.3,1.8,93,0.01,,,0.01,WUHU216HW,2013-05-04 06:11:00,
2013-05-04 01:16:00,32.9,31.2,29.81,NW,315,0.4,2.5,93,0.01,,,0.01,WUHU216HW,2013-05-04 06:16:00,
2013-05-04 01:21:00,33.1,31.3,29.81,NW,315,1.1,2.7,93,0.01,,,0.01,WUHU216HW,2013-05-04 06:21:00,
2013-05-04 01:26:00,32.9,31.2,29.81,North,0,1.1,2.7,93,0.00,,,0.01,WUHU216HW,2013-05-04 06:26:00,
2013-05-04 01:31:00,33.1,31.3,29.81,NW,315,1.6,1.6,93,0.00,,,0.01,WUHU216HW,2013-05-04 06:31:00,
2013-05-04 01:36:00,32.9,31.2,29.81,NNW,338,0.2,1.6,93,0.00,,,0.01,WUHU216HW,2013-05-04 06:36:00,
2013-05-04 01:41:00,33.1,31.3,29.81,NW,315,1.8,1.8,93,0.00,,,0.01,WUHU216HW,2013-05-04 06:41:00,
2013-05-04 01:46:00,32.9,31.2,29.80,NNW,338,0.2,1.8,93,0.00,,,0.01,WUHU216HW,2013-05-04 06:46:00,
2013-05-04 01:51:00,32.9,31.2,29.80,NW,315,0.0,1.8,93,0.00,,,0.01,WUHU216HW,2013-05-04 06:51:00,
2013-05-04 01:56:00,32.9,31.2,29.80,NW,315,1.1,2.5,93,0.00,,,0.01,WUHU216HW,2013-05-04 06:56:00,
2013-05-04 02:01:00,32.9,31.2,29.79,NW,315,1.1,2.5,93,0.00,,,0.01,WUHU216HW,2013-05-04 07:01:00,
2013-05-04 02:06:00,32.9,31.2,29.79,NW,315,1.1,1.1,93,0.00,,,0.01,WUHU216HW,2013-05-04 07:06:00,
2013-05-04 02:11:00,33.1,31.3,29.79,North,0,0.2,1.8,93,0.00,,,0.01,WUHU216HW,2013-05-04 07:11:00,
2013-05-04 02:16:00,32.9,31.2,29.79,NNW,338,1.3,1.8,93,0.00,,,0.01,WUHU216HW,2013-05-04 07:16:00,
2013-05-04 02:21:00,32.9,31.2,29.79,North,0,1.1,1.6,93,0.00,,,0.01,WUHU216HW,2013-05-04 07:21:00,
2013-05-04 02:26:00,32.9,31.2,29.78,North,0,1.8,1.8,93,0.00,,,0.01,WUHU216HW,2013-05-04 07:26:00,
2013-05-04 02:31:00,32.9,31.2,29.78,WSW,248,2.0,2.0,93,0.00,,,0.01,WUHU216HW,2013-05-04 07:31:00,
2013-05-04 02:36:00,32.9,31.2,29.78,NW,315,0.9,2.0,93,0.00,,,0.01,WUHU216HW,2013-05-04 07:36:00,
2013-05-04 02:41:00,32.9,31.2,29.78,NNE,23,0.4,2.0,93,0.00,,,0.01,WUHU216HW,2013-05-04 07:41:00,
2013-05-04 02:46:00,32.9,31.2,29.78,North,0,1.3,1.3,93,0.00,,,0.01,WUHU216HW,2013-05-04 07:46:00,
2013-05-04 02:51:00,32.9,31.2,29.78,NNW,338,1.6,1.6,93,0.00,,,0.01,WUHU216HW,2013-05-04 07:51:00,
2013-05-04 02:56:00,32.9,31.2,29.77,NNW,338,2.5,2.5,93,0.00,,,0.01,WUHU216HW,2013-05-04 07:56:00,
2013-05-04 03:01:00,32.9,31.2,29.78,NNW,338,1.6,2.5,93,0.01,,,0.02,WUHU216HW,2013-05-04 08:01:00,
2013-05-04 03:06:00,32.9,31.2,29.77,NNW,338,1.6,2.5,93,0.01,,,0.02,WUHU216HW,2013-05-04 08:06:00,
2013-05-04 03:11:00,32.9,31.2,29.78,NNW,338,1.6,1.6,93,0.01,,,0.02,WUHU216HW,2013-05-04 08:11:00,
2013-05-04 03:16:00,32.9,31.2,29.78,NNW,338,1.6,1.6,93,0.01,,,0.02,WUHU216HW,2013-05-04 08:16:00,
2013-05-04 03:21:00,32.9,31.2,29.78,NW,315,0.7,1.6,93,0.01,,,0.02,WUHU216HW,2013-05-04 08:21:00,
2013-05-04 03:26:00,32.9,31.2,29.78,NNW,338,2.0,2.0,93,0.01,,,0.02,WUHU216HW,2013-05-04 08:26:00,
2013-05-04 03:31:00,32.9,31.2,29.78,NW,315,0.2,2.0,93,0.01,,,0.02,WUHU216HW,2013-05-04 08:31:00,
2013-05-04 03:36:00,32.8,31.0,29.78,West,270,0.7,2.0,93,0.01,,,0.02,WUHU216HW,2013-05-04 08:36:00,
2013-05-04 03:41:00,32.8,31.0,29.78,NW,315,0.2,0.9,93,0.01,,,0.02,WUHU216HW,2013-05-04 08:41:00,
2013-05-04 03:46:00,32.8,31.0,29.77,NW,315,0.0,0.9,93,0.01,,,0.02,WUHU216HW,2013-05-04 08:46:00,
2013-05-04 03:51:00,32.8,31.0,29.77,SW,225,0.9,0.9,93,0.01,,,0.02,WUHU216HW,2013-05-04 08:51:00,
2013-05-04 03:56:00,32.8,31.0,29.78,NNW,338,0.0,0.9,93,0.00,,,0.02,WUHU216HW,2013-05-04 08:56:00,
2013-05-04 04:01:00,32.8,31.0,29.78,NW,315,0.9,0.9,93,0.00,,,0.02,WUHU216HW,2013-05-04 09:01:00,
2013-05-04 04:06:00,32.8,31.0,29.78,NNW,338,0.0,0.9,93,0.00,,,0.02,WUHU216HW,2013-05-04 09:06:00,
2013-05-04 04:11:00,33.1,31.3,29.78,NNE,23,0.7,1.3,93,0.00,,,0.02,WUHU216HW,2013-05-04 09:11:00,
2013-05-04 04:16:00,33.1,31.3,29.78,NNW,338,1.1,1.3,93,0.00,,,0.02,WUHU216HW,2013-05-04 09:16:00,
2013-05-04 04:21:00,33.3,31.4,29.78,WSW,248,0.0,1.1,93,0.00,,,0.02,WUHU216HW,2013-05-04 09:21:00,
2013-05-04 04:26:00,33.1,31.3,29.77,NW,315,0.2,1.1,93,0.00,,,0.02,WUHU216HW,2013-05-04 09:26:00,
2013-05-04 04:31:00,33.3,31.4,29.78,NW,315,1.1,1.1,93,0.00,,,0.02,WUHU216HW,2013-05-04 09:31:00,
2013-05-04 04:36:00,33.5,31.6,29.77,NW,315,0.9,1.1,93,0.00,,,0.02,WUHU216HW,2013-05-04 09:36:00,
2013-05-04 04:41:00,33.5,31.6,29.77,NNW,338,1.1,1.1,93,0.00,,,0.02,WUHU216HW,2013-05-04 09:41:00,
2013-05-04 04:46:00,33.5,31.6,29.77,NNW,338,1.6,1.6,93,0.01,,,0.03,WUHU216HW,2013-05-04 09:46:00,
2013-05-04 04:51:00,33.5,31.6,29.76,North,0,1.1,1.6,93,0.01,,,0.03,WUHU216HW,2013-05-04 09:51:00,
2013-05-04 04:56:00,33.7,32.0,29.77,WNW,293,0.9,1.6,94,0.01,,,0.03,WUHU216HW,2013-05-04 09:56:00,
2013-05-04 05:01:00,33.7,32.0,29.77,NW,315,1.6,1.6,94,0.01,,,0.03,WUHU216HW,2013-05-04 10:01:00,
2013-05-04 05:06:00,33.8,32.2,29.77,NW,315,2.9,2.9,94,0.01,,,0.03,WUHU216HW,2013-05-04 10:06:00,
2013-05-04 05:11:00,33.8,32.2,29.77,NNW,338,0.7,2.9,94,0.01,,,0.03,WUHU216HW,2013-05-04 10:11:00,
2013-05-04 05:16:00,33.8,32.2,29.76,NNW,338,0.4,2.9,94,0.02,,,0.04,WUHU216HW,2013-05-04 10:16:00,
2013-05-04 05:22:00,34.0,32.4,29.77,NNW,338,1.3,1.3,94,0.02,,,0.04,WUHU216HW,2013-05-04 10:22:00,
2013-05-04 05:27:00,34.0,32.4,29.77,NNW,338,0.7,1.3,94,0.02,,,0.04,WUHU216HW,2013-05-04 10:27:00,
2013-05-04 05:32:00,34.0,32.4,29.77,NNW,338,0.4,1.3,94,0.02,,,0.04,WUHU216HW,2013-05-04 10:32:00,
2013-05-04 05:37:00,34.0,32.4,29.77,West,270,1.8,5.1,94,0.02,,,0.04,WUHU216HW,2013-05-04 10:37:00,
2013-05-04 05:42:00,34.0,32.4,29.77,NNW,338,1.1,5.1,94,0.03,,,0.04,WUHU216HW,2013-05-04 10:42:00,
2013-05-04 05:47:00,34.0,32.4,29.77,NNW,338,1.8,1.8,94,0.02,,,0.05,WUHU216HW,2013-05-04 10:47:00,
2013-05-04 05:52:00,34.2,32.6,29.77,NNW,338,1.3,1.8,94,0.02,,,0.05,WUHU216HW,2013-05-04 10:52:00,
2013-05-04 05:57:00,34.2,32.6,29.77,North,0,2.5,2.5,94,0.02,,,0.05,WUHU216HW,2013-05-04 10:57:00,
2013-05-04 06:02:00,34.2,32.6,29.77,North,0,4.3,4.3,94,0.02,,,0.05,WUHU216HW,2013-05-04 11:02:00,
2013-05-04 06:07:00,34.2,32.6,29.78,NNW,338,1.1,4.3,94,0.02,,,0.05,WUHU216HW,2013-05-04 11:07:00,
2013-05-04 06:12:00,34.2,32.6,29.78,NNW,338,1.1,4.3,94,0.02,,,0.05,WUHU216HW,2013-05-04 11:12:00,
2013-05-04 06:17:00,34.2,32.6,29.78,NNW,338,0.2,1.1,94,0.01,,,0.05,WUHU216HW,2013-05-04 11:17:00,
2013-05-04 06:22:00,34.2,32.6,29.78,North,0,2.0,2.0,94,0.02,,,0.06,WUHU216HW,2013-05-04 11:22:00,
2013-05-04 06:27:00,34.4,32.8,29.78,North,0,1.3,2.0,94,0.02,,,0.06,WUHU216HW,2013-05-04 11:27:00,
2013-05-04 06:32:00,34.4,32.8,29.78,NNW,338,0.9,1.6,94,0.02,,,0.06,WUHU216HW,2013-05-04 11:32:00,
2013-05-04 06:37:00,34.4,32.8,29.78,NNW,338,0.4,1.6,94,0.02,,,0.06,WUHU216HW,2013-05-04 11:37:00,
2013-05-04 06:42:00,34.4,32.8,29.78,NNW,338,1.8,1.8,94,0.01,,,0.06,WUHU216HW,2013-05-04 11:42:00,
2013-05-04 06:47:00,34.6,32.9,29.78,North,0,0.4,1.8,94,0.01,,,0.06,WUHU216HW,2013-05-04 11:47:00,
2013-05-04 06:52:00,34.6,32.9,29.78,NNW,338,0.7,2.5,94,0.02,,,0.07,WUHU216HW,2013-05-04 11:52:00,
2013-05-04 06:57:00,34.6,32.9,29.79,NNE,23,2.2,2.5,94,0.02,,,0.07,WUHU216HW,2013-05-04 11:57:00,
2013-05-04 07:02:00,34.6,32.9,29.79,NNW,338,1.3,2.2,94,0.02,,,0.07,WUHU216HW,2013-05-04 12:02:00,
2013-05-04 07:07:00,34.9,33.3,29.79,NNW,338,1.3,2.5,94,0.02,,,0.07,WUHU216HW,2013-05-04 12:07:00,
2013-05-04 07:12:00,34.9,33.3,29.79,NNW,338,3.4,3.4,94,0.02,,,0.07,WUHU216HW,2013-05-04 12:12:00,
2013-05-04 07:17:00,34.9,33.3,29.79,NNE,23,1.8,3.4,94,0.01,,,0.07,WUHU216HW,2013-05-04 12:17:00,
2013-05-04 07:22:00,35.1,33.5,29.79,NNW,338,1.8,2.9,94,0.02,,,0.08,WUHU216HW,2013-05-04 12:22:00,
2013-05-04 07:27:00,35.1,33.5,29.79,North,0,3.8,3.8,94,0.02,,,0.08,WUHU216HW,2013-05-04 12:27:00,
2013-05-04 07:33:00,35.3,33.7,29.79,NNW,338,1.8,5.1,94,0.02,,,0.08,WUHU216HW,2013-05-04 12:33:00,
2013-05-04 07:38:00,35.5,33.8,29.79,North,0,2.7,5.1,94,0.02,,,0.08,WUHU216HW,2013-05-04 12:38:00,
2013-05-04 07:43:00,35.6,34.0,29.79,North,0,5.1,5.1,94,0.02,,,0.08,WUHU216HW,2013-05-04 12:43:00,
2013-05-04 07:48:00,35.6,34.0,29.79,North,0,4.7,5.1,94,0.03,,,0.09,WUHU216HW,2013-05-04 12:48:00,
2013-05-04 07:53:00,35.6,34.0,29.80,North,0,1.6,5.1,94,0.02,,,0.09,WUHU216HW,2013-05-04 12:53:00,
2013-05-04 07:58:00,35.8,34.2,29.80,NE,45,5.4,5.4,94,0.02,,,0.09,WUHU216HW,2013-05-04 12:58:00,
2013-05-04 08:03:00,36.2,34.6,29.80,NNE,23,5.1,5.4,94,0.02,,,0.09,WUHU216HW,2013-05-04 13:03:00,
2013-05-04 08:04:00,36.2,34.6,29.80,NE,45,4.0,5.4,94,0.02,,,0.09,WUHU216HW,2013-05-04 13:04:00,
2013-05-04 08:09:00,36.4,34.7,29.80,NE,45,2.7,5.1,94,0.03,,,0.10,WUHU216HW,2013-05-04 13:09:00,
2013-05-04 08:14:00,36.4,34.7,29.80,NE,45,5.6,5.6,94,0.03,,,0.10,WUHU216HW,2013-05-04 13:14:00,
2013-05-04 08:19:00,36.4,34.7,29.80,NE,45,5.6,5.6,94,0.02,,,0.10,WUHU216HW,2013-05-04 13:19:00,
2013-05-04 08:24:00,36.4,34.7,29.80,NE,45,5.6,5.6,94,0.02,,,0.10,WUHU216HW,2013-05-04 13:24:00,
2013-05-04 08:29:00,36.4,34.7,29.80,NE,45,5.6,5.6,94,0.02,,,0.10,WUHU216HW,2013-05-04 13:29:00,
2013-05-04 08:34:00,36.7,35.1,29.80,NE,45,4.3,5.6,94,0.03,,,0.11,WUHU216HW,2013-05-04 13:34:00,
2013-05-04 08:39:00,37.1,35.5,29.81,ENE,68,3.1,4.3,94,0.03,,,0.11,WUHU216HW,2013-05-04 13:39:00,
2013-05-04 08:44:00,36.9,35.3,29.81,NNE,23,2.5,6.3,94,0.03,,,0.11,WUHU216HW,2013-05-04 13:44:00,
2013-05-04 08:49:00,37.1,35.5,29.81,NE,45,3.4,6.3,94,0.02,,,0.11,WUHU216HW,2013-05-04 13:49:00,
2013-05-04 08:54:00,37.1,35.5,29.81,NE,45,3.4,3.4,94,0.02,,,0.11,WUHU216HW,2013-05-04 13:54:00,
2013-05-04 08:59:00,37.1,35.5,29.81,NE,45,3.4,3.4,94,0.02,,,0.11,WUHU216HW,2013-05-04 13:59:00,
2013-05-04 09:04:00,37.1,35.5,29.82,NE,45,6.0,6.9,94,0.02,,,0.11,WUHU216HW,2013-05-04 14:04:00,
2013-05-04 09:09:00,37.1,35.5,29.82,ESE,113,1.8,6.9,94,0.01,,,0.11,WUHU216HW,2013-05-04 14:09:00,
2013-05-04 09:14:00,37.3,35.4,29.82,NE,45,2.5,4.3,93,0.02,,,0.12,WUHU216HW,2013-05-04 14:14:00,
2013-05-04 09:19:00,37.3,35.4,29.83,NNE,23,4.0,4.3,93,0.02,,,0.12,WUHU216HW,2013-05-04 14:19:00,
2013-05-04 09:24:00,37.3,35.4,29.83,NNE,23,4.0,4.0,93,0.02,,,0.12,WUHU216HW,2013-05-04 14:24:00,
2013-05-04 09:29:00,37.3,35.4,29.83,NNE,23,4.0,4.0,93,0.01,,,0.12,WUHU216HW,2013-05-04 14:29:00,
2013-05-04 09:34:00,37.4,35.3,29.83,ENE,68,3.6,4.0,92,0.01,,,0.12,WUHU216HW,2013-05-04 14:34:00,
2013-05-04 09:39:00,37.6,35.5,29.83,ENE,68,1.3,4.0,92,0.01,,,0.12,WUHU216HW,2013-05-04 14:39:00,
2013-05-04 09:44:00,37.8,35.6,29.84,NE,45,1.8,3.6,92,0.01,,,0.12,WUHU216HW,2013-05-04 14:44:00,
2013-05-04 09:49:00,37.8,35.6,29.84,NE,45,1.8,1.8,92,0.01,,,0.12,WUHU216HW,2013-05-04 14:49:00,
2013-05-04 09:54:00,37.8,35.6,29.84,NE,45,1.8,1.8,92,0.01,,,0.12,WUHU216HW,2013-05-04 14:54:00,
2013-05-04 09:59:00,38.5,36.1,29.85,NNE,23,5.4,5.4,91,0.01,,,0.12,WUHU216HW,2013-05-04 14:59:00,
2013-05-04 10:04:00,38.2,35.5,29.84,East,90,1.6,5.4,90,0.01,,,0.12,WUHU216HW,2013-05-04 15:04:00,
2013-05-04 10:09:00,38.3,35.6,29.84,ENE,68,2.7,3.8,90,0.00,,,0.12,WUHU216HW,2013-05-04 15:09:00,
2013-05-04 10:14:00,38.5,35.8,29.85,ENE,68,3.1,5.4,90,0.00,,,0.12,WUHU216HW,2013-05-04 15:14:00,
2013-05-04 10:19:00,39.1,36.4,29.85,North,0,3.1,5.4,90,0.00,,,0.12,WUHU216HW,2013-05-04 15:19:00,
2013-05-04 10:24:00,39.2,36.8,29.85,NNE,23,6.3,6.3,91,0.00,,,0.12,WUHU216HW,2013-05-04 15:24:00,
2013-05-04 10:29:00,39.1,36.4,29.85,NE,45,2.5,6.3,90,0.00,,,0.12,WUHU216HW,2013-05-04 15:29:00,
2013-05-04 10:34:00,39.6,36.9,29.85,NE,45,2.5,4.0,90,0.00,,,0.12,WUHU216HW,2013-05-04 15:34:00,
2013-05-04 10:39:00,40.0,36.6,29.85,ENE,68,2.9,2.9,88,0.00,,,0.12,WUHU216HW,2013-05-04 15:39:00,
2013-05-04 10:44:00,39.8,36.2,29.85,ENE,68,2.0,2.9,87,0.00,,,0.12,WUHU216HW,2013-05-04 15:44:00,
2013-05-04 10:49:00,40.3,37.4,29.85,NE,45,2.0,2.9,89,0.00,,,0.12,WUHU216HW,2013-05-04 15:49:00,
2013-05-04 10:54:00,40.5,36.9,29.85,NNE,23,5.4,5.4,87,0.00,,,0.12,WUHU216HW,2013-05-04 15:54:00,
2013-05-04 10:59:00,41.0,38.3,29.85,NE,45,2.9,5.4,90,0.00,,,0.12,WUHU216HW,2013-05-04 15:59:00,
2013-05-04 11:04:00,41.0,38.3,29.85,NE,45,3.8,3.8,90,0.00,,,0.12,WUHU216HW,2013-05-04 16:04:00,
2013-05-04 11:09:00,40.9,37.5,29.86,NNE,23,2.0,3.8,88,0.00,,,0.12,WUHU216HW,2013-05-04 16:09:00,
2013-05-04 11:14:00,40.7,37.4,29.86,NNE,23,2.5,2.7,88,0.00,,,0.12,WUHU216HW,2013-05-04 16:14:00,
2013-05-04 11:19:00,40.7,36.8,29.86,East,90,1.8,2.5,86,0.00,,,0.12,WUHU216HW,2013-05-04 16:19:00,
2013-05-04 11:24:00,40.7,36.8,29.87,East,90,1.8,4.0,86,0.00,,,0.12,WUHU216HW,2013-05-04 16:24:00,
2013-05-04 11:29:00,41.0,36.8,29.86,East,90,3.4,5.8,85,0.00,,,0.12,WUHU216HW,2013-05-04 16:29:00,
2013-05-04 11:34:00,40.7,36.5,29.86,ENE,68,1.8,5.8,85,0.00,,,0.12,WUHU216HW,2013-05-04 16:34:00,
2013-05-04 11:39:00,41.2,37.6,29.86,NNE,23,6.9,6.9,87,0.00,,,0.12,WUHU216HW,2013-05-04 16:39:00,
2013-05-04 11:44:00,41.0,36.8,29.86,ENE,68,2.5,6.9,85,0.00,,,0.12,WUHU216HW,2013-05-04 16:44:00,
2013-05-04 11:49:00,41.4,37.2,29.86,ENE,68,1.6,6.9,85,0.00,,,0.12,WUHU216HW,2013-05-04 16:49:00,
2013-05-04 11:54:00,41.9,37.7,29.86,NNE,23,1.1,2.7,85,0.00,,,0.12,WUHU216HW,2013-05-04 16:54:00,
2013-05-04 11:59:00,41.9,37.7,29.87,NNE,23,7.4,7.4,85,0.00,,,0.12,WUHU216HW,2013-05-04 16:59:00,
2013-05-04 12:04:00,41.4,36.9,29.87,NNE,23,6.3,7.4,84,0.00,,,0.12,WUHU216HW,2013-05-04 17:04:00,
2013-05-04 12:09:00,41.2,37.0,29.87,North,0,4.5,6.3,85,0.00,,,0.12,WUHU216HW,2013-05-04 17:09:00,
2013-05-04 12:14:00,41.4,37.4,29.87,North,0,7.6,7.6,86,0.00,,,0.12,WUHU216HW,2013-05-04 17:14:00,
2013-05-04 12:19:00,41.4,36.9,29.87,NE,45,6.3,9.6,84,0.00,,,0.12,WUHU216HW,2013-05-04 17:19:00,
2013-05-04 12:24:00,41.6,37.1,29.87,North,0,6.9,9.6,84,0.00,,,0.12,WUHU216HW,2013-05-04 17:24:00,
2013-05-04 12:29:00,42.3,37.8,29.87,North,0,2.9,6.9,84,0.00,,,0.12,WUHU216HW,2013-05-04 17:29:00,
2013-05-04 12:34:00,42.8,37.7,29.87,NE,45,5.1,6.9,82,0.00,,,0.12,WUHU216HW,2013-05-04 17:34:00,
2013-05-04 12:39:00,43.2,38.7,29.87,NNE,23,7.4,7.4,84,0.00,,,0.12,WUHU216HW,2013-05-04 17:39:00,
2013-05-04 12:44:00,42.8,37.7,29.87,North,0,2.7,8.7,82,0.00,,,0.12,WUHU216HW,2013-05-04 17:44:00,
2013-05-04 12:49:00,42.8,38.0,29.87,North,0,4.0,8.7,83,0.00,,,0.12,WUHU216HW,2013-05-04 17:49:00,
2013-05-04 12:54:00,42.8,37.7,29.88,NNE,23,4.9,5.6,82,0.00,,,0.12,WUHU216HW,2013-05-04 17:54:00,
2013-05-04 12:59:00,42.5,37.6,29.87,NE,45,8.1,8.1,83,0.00,,,0.12,WUHU216HW,2013-05-04 17:59:00,
2013-05-04 13:04:00,41.9,37.1,29.88,NNE,23,5.8,8.9,83,0.00,,,0.12,WUHU216HW,2013-05-04 18:04:00,
2013-05-04 13:09:00,42.3,38.1,29.88,NE,45,4.7,8.9,85,0.00,,,0.12,WUHU216HW,2013-05-04 18:09:00,
2013-05-04 13:14:00,42.3,37.8,29.88,NE,45,4.5,4.7,84,0.00,,,0.12,WUHU216HW,2013-05-04 18:14:00,
2013-05-04 13:19:00,42.8,38.0,29.88,NNE,23,3.4,4.7,83,0.00,,,0.12,WUHU216HW,2013-05-04 18:19:00,
2013-05-04 13:24:00,43.0,37.5,29.88,ENE,68,3.1,6.3,81,0.00,,,0.12,WUHU216HW,2013-05-04 18:24:00,
2013-05-04 13:29:00,42.7,37.2,29.88,ENE,68,6.0,6.3,81,0.00,,,0.12,WUHU216HW,2013-05-04 18:29:00,
2013-05-04 13:34:00,42.5,37.6,29.88,North,0,4.7,6.0,83,0.00,,,0.12,WUHU216HW,2013-05-04 18:34:00,
2013-05-04 13:39:00,42.7,37.8,29.89,ENE,68,4.0,6.0,83,0.00,,,0.12,WUHU216HW,2013-05-04 18:39:00,
2013-05-04 13:44:00,42.8,37.7,29.89,NNE,23,2.9,4.7,82,0.00,,,0.12,WUHU216HW,2013-05-04 18:44:00,
2013-05-04 13:49:00,43.7,38.3,29.88,NE,45,6.7,6.7,81,0.00,,,0.12,WUHU216HW,2013-05-04 18:49:00,
2013-05-04 13:54:00,44.1,38.3,29.89,NE,45,3.6,6.7,80,0.00,,,0.12,WUHU216HW,2013-05-04 18:54:00,
2013-05-04 13:59:00,44.3,38.8,29.89,NNE,23,6.3,6.7,81,0.00,,,0.12,WUHU216HW,2013-05-04 18:59:00,
2013-05-04 14:04:00,45.0,38.3,29.89,ENE,68,6.3,6.3,77,0.00,,,0.12,WUHU216HW,2013-05-04 19:04:00,
2013-05-04 14:09:00,45.4,38.6,29.89,ENE,68,4.9,6.3,77,0.00,,,0.12,WUHU216HW,2013-05-04 19:09:00,
2013-05-04 14:14:00,45.0,37.9,29.89,North,0,8.1,8.1,76,0.00,,,0.12,WUHU216HW,2013-05-04 19:14:00,
2013-05-04 14:19:00,45.4,38.6,29.89,NNE,23,5.6,8.1,77,0.00,,,0.12,WUHU216HW,2013-05-04 19:19:00,
2013-05-04 14:24:00,44.1,37.4,29.89,NNE,23,6.3,8.1,77,0.00,,,0.12,WUHU216HW,2013-05-04 19:24:00,
2013-05-04 14:29:00,43.9,37.5,29.89,ENE,68,8.1,8.1,78,0.00,,,0.12,WUHU216HW,2013-05-04 19:29:00,
2013-05-04 14:34:00,43.7,37.6,29.89,ENE,68,6.9,8.1,79,0.00,,,0.12,WUHU216HW,2013-05-04 19:34:00,
2013-05-04 14:39:00,43.9,37.5,29.90,NE,45,5.8,8.1,78,0.00,,,0.12,WUHU216HW,2013-05-04 19:39:00,
2013-05-04 14:44:00,44.6,37.9,29.90,NNE,23,7.2,7.2,77,0.00,,,0.12,WUHU216HW,2013-05-04 19:44:00,
2013-05-04 14:49:00,45.4,38.6,29.89,NNE,23,6.9,7.2,77,0.00,,,0.12,WUHU216HW,2013-05-04 19:49:00,
2013-05-04 14:54:00,45.7,38.6,29.89,North,0,5.4,7.2,76,0.00,,,0.12,WUHU216HW,2013-05-04 19:54:00,
2013-05-04 14:59:00,45.5,38.4,29.89,NE,45,4.9,6.9,76,0.00,,,0.12,WUHU216HW,2013-05-04 19:59:00,
2013-05-04 15:04:00,45.4,37.9,29.90,ENE,68,4.9,5.4,75,0.00,,,0.12,WUHU216HW,2013-05-04 20:04:00,
2013-05-04 15:09:00,45.0,37.5,29.90,NNE,23,5.1,5.8,75,0.00,,,0.12,WUHU216HW,2013-05-04 20:09:00,
2013-05-04 15:14:00,45.0,37.9,29.90,NNE,23,6.9,6.9,76,0.00,,,0.12,WUHU216HW,2013-05-04 20:14:00,
2013-05-04 15:19:00,44.6,37.2,29.90,North,0,7.6,7.6,75,0.00,,,0.12,WUHU216HW,2013-05-04 20:19:00,
2013-05-04 15:24:00,44.3,37.5,29.90,NNE,23,3.6,7.6,77,0.00,,,0.12,WUHU216HW,2013-05-04 20:24:00,
2013-05-04 15:29:00,44.6,38.2,29.90,ENE,68,1.8,6.5,78,0.00,,,0.12,WUHU216HW,2013-05-04 20:29:00,
2013-05-04 15:34:00,45.0,38.3,29.90,ENE,68,1.6,3.4,77,0.00,,,0.12,WUHU216HW,2013-05-04 20:34:00,
2013-05-04 15:39:00,45.0,37.5,29.90,NE,45,4.9,6.0,75,0.00,,,0.12,WUHU216HW,2013-05-04 20:39:00,
2013-05-04 15:44:00,44.8,37.7,29.91,ENE,68,3.8,6.0,76,0.00,,,0.12,WUHU216HW,2013-05-04 20:44:00,
2013-05-04 15:49:00,44.8,38.1,29.91,NE,45,2.5,4.9,77,0.00,,,0.12,WUHU216HW,2013-05-04 20:49:00,
2013-05-04 15:54:00,44.8,38.1,29.91,NNE,23,5.8,5.8,77,0.00,,,0.12,WUHU216HW,2013-05-04 20:54:00,
2013-05-04 15:59:00,44.5,37.7,29.91,North,0,4.5,6.5,77,0.00,,,0.12,WUHU216HW,2013-05-04 20:59:00,
2013-05-04 16:04:00,44.5,37.7,29.91,NNE,23,8.1,8.1,77,0.00,,,0.12,WUHU216HW,2013-05-04 21:04:00,
2013-05-04 16:09:00,44.5,37.7,29.91,NNE,23,2.9,8.1,77,0.00,,,0.12,WUHU216HW,2013-05-04 21:09:00,
2013-05-04 16:14:00,44.5,37.7,29.91,NNE,23,2.5,8.1,77,0.00,,,0.12,WUHU216HW,2013-05-04 21:14:00,
2013-05-04 16:19:00,44.5,38.0,29.91,North,0,3.4,3.4,78,0.00,,,0.12,WUHU216HW,2013-05-04 21:19:00,
2013-05-04 16:24:00,44.8,38.1,29.91,NE,45,3.4,4.5,77,0.00,,,0.12,WUHU216HW,2013-05-04 21:24:00,
2013-05-04 16:29:00,44.6,37.9,29.91,NE,45,6.9,6.9,77,0.00,,,0.12,WUHU216HW,2013-05-04 21:29:00,
2013-05-04 16:34:00,44.6,38.2,29.91,NE,45,7.2,7.2,78,0.00,,,0.12,WUHU216HW,2013-05-04 21:34:00,
2013-05-04 16:39:00,44.8,38.1,29.91,ENE,68,4.0,7.2,77,0.00,,,0.12,WUHU216HW,2013-05-04 21:39:00,
2013-05-04 16:44:00,45.0,38.3,29.92,ENE,68,3.4,5.6,77,0.00,,,0.12,WUHU216HW,2013-05-04 21:44:00,
2013-05-04 16:49:00,45.0,38.3,29.92,ENE,68,4.0,4.7,77,0.00,,,0.12,WUHU216HW,2013-05-04 21:49:00,
2013-05-04 16:54:00,45.0,37.9,29.92,ENE,68,3.4,4.7,76,0.00,,,0.12,WUHU216HW,2013-05-04 21:54:00,
2013-05-04 16:59:00,45.0,37.9,29.92,East,90,3.8,4.0,76,0.00,,,0.12,WUHU216HW,2013-05-04 21:59:00,
2013-05-04 17:04:00,45.0,37.9,29.92,East,90,3.4,3.8,76,0.00,,,0.12,WUHU216HW,2013-05-04 22:04:00,
2013-05-04 17:09:00,45.0,38.3,29.93,NNE,23,5.1,5.1,77,0.00,,,0.12,WUHU216HW,2013-05-04 22:09:00,
2013-05-04 17:14:00,45.0,37.9,29.93,NE,45,3.4,5.1,76,0.00,,,0.12,WUHU216HW,2013-05-04 22:14:00,
2013-05-04 17:19:00,44.8,37.7,29.93,ENE,68,3.4,3.4,76,0.00,,,0.12,WUHU216HW,2013-05-04 22:19:00,
2013-05-04 17:24:00,44.6,37.9,29.93,NE,45,2.5,3.4,77,0.00,,,0.12,WUHU216HW,2013-05-04 22:24:00,
2013-05-04 17:29:00,44.6,38.2,29.93,NNE,23,2.9,3.4,78,0.00,,,0.12,WUHU216HW,2013-05-04 22:29:00,
2013-05-04 17:34:00,44.6,37.9,29.93,NNE,23,3.4,3.4,77,0.00,,,0.12,WUHU216HW,2013-05-04 22:34:00,
2013-05-04 17:39:00,44.6,38.2,29.93,NE,45,3.6,4.3,78,0.00,,,0.12,WUHU216HW,2013-05-04 22:39:00,
2013-05-04 17:44:00,44.6,38.2,29.93,NE,45,3.4,4.3,78,0.00,,,0.12,WUHU216HW,2013-05-04 22:44:00,
2013-05-04 17:49:00,44.6,38.5,29.94,NE,45,2.2,4.7,79,0.00,,,0.12,WUHU216HW,2013-05-04 22:49:00,
2013-05-04 17:54:00,44.5,38.3,29.94,NE,45,3.6,4.7,79,0.00,,,0.12,WUHU216HW,2013-05-04 22:54:00,
2013-05-04 17:59:00,44.5,38.7,29.93,NNE,23,5.4,5.4,80,0.00,,,0.12,WUHU216HW,2013-05-04 22:59:00,
2013-05-04 18:04:00,44.5,39.0,29.93,NNE,23,4.7,5.4,81,0.00,,,0.12,WUHU216HW,2013-05-04 23:04:00,
2013-05-04 18:09:00,44.5,38.7,29.94,North,0,2.2,5.1,80,0.00,,,0.12,WUHU216HW,2013-05-04 23:09:00,
2013-05-04 18:14:00,44.6,38.9,29.93,North,0,0.4,5.1,80,0.00,,,0.12,WUHU216HW,2013-05-04 23:14:00,
2013-05-04 18:19:00,44.6,38.9,29.94,ENE,68,1.8,2.2,80,0.00,,,0.12,WUHU216HW,2013-05-04 23:19:00,
2013-05-04 18:24:00,44.8,38.7,29.94,NE,45,0.4,1.8,79,0.00,,,0.12,WUHU216HW,2013-05-04 23:24:00,
2013-05-04 18:29:00,44.8,38.7,29.94,North,0,3.8,3.8,79,0.00,,,0.12,WUHU216HW,2013-05-04 23:29:00,
2013-05-04 18:34:00,44.8,39.1,29.94,North,0,3.1,3.8,80,0.00,,,0.12,WUHU216HW,2013-05-04 23:34:00,
2013-05-04 18:39:00,45.0,38.9,29.94,NNW,338,1.8,3.8,79,0.00,,,0.12,WUHU216HW,2013-05-04 23:39:00,
2013-05-04 18:44:00,44.8,38.7,29.94,NW,315,1.1,3.1,79,0.00,,,0.12,WUHU216HW,2013-05-04 23:44:00,
2013-05-04 18:49:00,45.0,38.9,29.93,NNW,338,1.3,1.8,79,0.00,,,0.12,WUHU216HW,2013-05-04 23:49:00,
2013-05-04 18:54:00,44.8,38.7,29.93,NW,315,0.4,1.3,79,0.00,,,0.12,WUHU216HW,2013-05-04 23:54:00,
2013-05-04 18:59:00,45.0,39.2,29.94,North,0,1.1,1.3,80,0.00,,,0.12,WUHU216HW,2013-05-04 23:59:00,
2013-05-04 19:04:00,45.0,38.9,29.94,NNE,23,0.0,1.1,79,0.00,,,0.12,WUHU216HW,2013-05-05 00:04:00,
2013-05-04 19:09:00,45.0,38.9,29.93,North,0,0.0,0.2,79,0.00,,,0.12,WUHU216HW,2013-05-05 00:09:00,
2013-05-04 19:14:00,44.8,38.7,29.93,NNW,338,2.2,2.2,79,0.00,,,0.12,WUHU216HW,2013-05-05 00:14:00,
2013-05-04 19:19:00,44.6,38.5,29.93,NNW,338,0.9,2.2,79,0.00,,,0.12,WUHU216HW,2013-05-05 00:19:00,
2013-05-04 19:24:00,44.6,38.9,29.94,North,0,0.7,2.2,80,0.00,,,0.12,WUHU216HW,2013-05-05 00:24:00,
2013-05-04 19:29:00,44.6,38.9,29.94,North,0,1.8,1.8,80,0.00,,,0.12,WUHU216HW,2013-05-05 00:29:00,
2013-05-04 19:34:00,44.6,38.9,29.94,North,0,0.2,1.8,80,0.00,,,0.12,WUHU216HW,2013-05-05 00:34:00,
2013-05-04 19:39:00,44.5,38.7,29.94,NNW,338,0.4,1.8,80,0.00,,,0.12,WUHU216HW,2013-05-05 00:39:00,
2013-05-04 19:44:00,44.5,39.0,29.95,NNW,338,0.2,0.4,81,0.00,,,0.12,WUHU216HW,2013-05-05 00:44:00,
2013-05-04 19:49:00,44.5,39.0,29.94,NW,315,0.4,0.4,81,0.00,,,0.12,WUHU216HW,2013-05-05 00:49:00,
2013-05-04 19:54:00,44.3,39.2,29.94,NW,315,1.1,1.1,82,0.00,,,0.12,WUHU216HW,2013-05-05 00:54:00,
2013-05-04 19:59:00,44.3,39.2,29.94,NW,315,1.1,1.1,82,0.00,,,0.12,WUHU216HW,2013-05-05 00:59:00,
2013-05-04 20:04:00,44.1,39.2,29.94,NW,315,0.2,1.1,83,0.00,,,0.12,WUHU216HW,2013-05-05 01:04:00,
2013-05-04 20:09:00,44.1,39.2,29.94,NW,315,0.0,0.9,83,0.00,,,0.12,WUHU216HW,2013-05-05 01:09:00,
2013-05-04 20:14:00,44.1,39.2,29.95,NW,315,0.0,0.2,83,0.00,,,0.12,WUHU216HW,2013-05-05 01:14:00,
2013-05-04 20:19:00,44.1,39.2,29.94,NW,315,0.2,0.2,83,0.00,,,0.12,WUHU216HW,2013-05-05 01:19:00,
2013-05-04 20:24:00,44.1,39.2,29.94,NW,315,0.4,0.4,83,0.00,,,0.12,WUHU216HW,2013-05-05 01:24:00,
2013-05-04 20:29:00,43.9,39.1,29.95,NW,315,0.4,0.4,83,0.00,,,0.12,WUHU216HW,2013-05-05 01:29:00,
2013-05-04 20:34:00,43.9,39.1,29.95,NNW,338,0.0,0.4,83,0.00,,,0.12,WUHU216HW,2013-05-05 01:34:00,
2013-05-04 20:39:00,43.9,39.1,29.95,NW,315,0.2,0.2,83,0.00,,,0.12,WUHU216HW,2013-05-05 01:39:00,
2013-05-04 20:44:00,43.9,39.1,29.95,NW,315,1.1,1.1,83,0.00,,,0.12,WUHU216HW,2013-05-05 01:44:00,
2013-05-04 20:49:00,43.9,39.1,29.95,NNW,338,0.0,1.1,83,0.00,,,0.12,WUHU216HW,2013-05-05 01:49:00,
2013-05-04 20:54:00,43.9,39.4,29.95,WNW,293,0.7,1.1,84,0.00,,,0.12,WUHU216HW,2013-05-05 01:54:00,
2013-05-04 20:59:00,43.9,39.1,29.96,NNW,338,0.0,0.7,83,0.00,,,0.12,WUHU216HW,2013-05-05 01:59:00,
2013-05-04 21:04:00,43.9,39.1,29.96,NW,315,0.2,0.7,83,0.00,,,0.12,WUHU216HW,2013-05-05 02:04:00,
2013-05-04 21:09:00,43.9,39.1,29.96,NNW,338,0.0,1.1,83,0.00,,,0.12,WUHU216HW,2013-05-05 02:09:00,
2013-05-04 21:14:00,43.9,39.1,29.96,NNW,338,0.4,1.1,83,0.00,,,0.12,WUHU216HW,2013-05-05 02:14:00,
2013-05-04 21:19:00,43.9,39.4,29.96,NW,315,0.7,0.7,84,0.00,,,0.12,WUHU216HW,2013-05-05 02:19:00,
2013-05-04 21:24:00,43.9,39.4,29.96,NW,315,0.0,0.7,84,0.00,,,0.12,WUHU216HW,2013-05-05 02:24:00,
2013-05-04 21:29:00,43.9,39.4,29.96,NW,315,1.1,1.1,84,0.00,,,0.12,WUHU216HW,2013-05-05 02:29:00,
2013-05-04 21:34:00,43.9,39.4,29.96,NW,315,0.2,1.1,84,0.00,,,0.12,WUHU216HW,2013-05-05 02:34:00,
2013-05-04 21:39:00,43.9,39.1,29.96,NW,315,0.0,2.5,83,0.00,,,0.12,WUHU216HW,2013-05-05 02:39:00,
2013-05-04 21:44:00,43.9,39.1,29.96,NW,315,0.2,2.5,83,0.00,,,0.12,WUHU216HW,2013-05-05 02:44:00,
2013-05-04 21:49:00,43.9,39.1,29.96,NW,315,0.0,0.4,83,0.00,,,0.12,WUHU216HW,2013-05-05 02:49:00,
2013-05-04 21:54:00,44.1,39.2,29.96,NW,315,0.2,0.2,83,0.00,,,0.12,WUHU216HW,2013-05-05 02:54:00,
2013-05-04 21:59:00,43.9,39.1,29.96,NNW,338,0.4,0.4,83,0.00,,,0.12,WUHU216HW,2013-05-05 02:59:00,
2013-05-04 22:04:00,43.9,39.1,29.96,NW,315,1.1,1.1,83,0.00,,,0.12,WUHU216HW,2013-05-05 03:04:00,
2013-05-04 22:09:00,44.1,39.2,29.96,NW,315,0.4,1.1,83,0.00,,,0.12,WUHU216HW,2013-05-05 03:09:00,
2013-05-04 22:14:00,44.1,39.2,29.97,NW,315,0.4,0.9,83,0.00,,,0.12,WUHU216HW,2013-05-05 03:14:00,
2013-05-04 22:19:00,44.1,39.2,29.96,NNW,338,0.0,0.9,83,0.00,,,0.12,WUHU216HW,2013-05-05 03:19:00,
2013-05-04 22:24:00,44.1,39.2,29.96,NW,315,0.4,0.4,83,0.00,,,0.12,WUHU216HW,2013-05-05 03:24:00,
2013-05-04 22:29:00,44.1,39.6,29.96,NW,315,0.0,0.4,84,0.00,,,0.12,WUHU216HW,2013-05-05 03:29:00,
2013-05-04 22:34:00,44.1,39.6,29.96,WNW,293,0.2,0.4,84,0.00,,,0.12,WUHU216HW,2013-05-05 03:34:00,
2013-05-04 22:39:00,44.1,39.6,29.96,West,270,0.0,0.2,84,0.00,,,0.12,WUHU216HW,2013-05-05 03:39:00,
2013-05-04 22:44:00,43.9,39.4,29.96,WSW,248,0.0,0.2,84,0.00,,,0.12,WUHU216HW,2013-05-05 03:44:00,
2013-05-04 22:49:00,44.1,39.6,29.97,WSW,248,0.0,0.0,84,0.00,,,0.12,WUHU216HW,2013-05-05 03:49:00,
2013-05-04 22:54:00,43.9,39.4,29.96,WSW,248,0.0,0.0,84,0.00,,,0.12,WUHU216HW,2013-05-05 03:54:00,
2013-05-04 22:59:00,43.9,39.4,29.97,WSW,248,0.0,0.0,84,0.00,,,0.12,WUHU216HW,2013-05-05 03:59:00,
2013-05-04 23:01:00,43.9,39.4,29.96,WSW,248,0.0,0.0,84,0.00,,,0.12,WUHU216HW,2013-05-05 04:01:00,
2013-05-04 23:06:00,43.9,39.7,29.96,WSW,248,0.0,0.0,85,0.00,,,0.12,WUHU216HW,2013-05-05 04:06:00,
2013-05-04 23:11:00,43.9,39.7,29.97,WSW,248,0.0,0.0,85,0.00,,,0.12,WUHU216HW,2013-05-05 04:11:00,
2013-05-04 23:16:00,43.9,39.7,29.97,WSW,248,0.0,0.0,85,0.00,,,0.12,WUHU216HW,2013-05-05 04:16:00,
2013-05-04 23:21:00,43.7,39.5,29.97,SSW,203,0.0,0.0,85,0.00,,,0.12,WUHU216HW,2013-05-05 04:21:00,
2013-05-04 23:26:00,43.9,39.7,29.97,SSW,203,0.0,0.0,85,0.00,,,0.12,WUHU216HW,2013-05-05 04:26:00,
2013-05-04 23:31:00,43.9,39.7,29.97,SW,225,0.0,0.0,85,0.00,,,0.12,WUHU216HW,2013-05-05 04:31:00,
2013-05-04 23:36:00,43.9,39.7,29.97,SW,225,0.0,0.0,85,0.00,,,0.12,WUHU216HW,2013-05-05 04:36:00,
2013-05-04 23:41:00,43.9,40.0,29.97,WNW,293,0.0,0.0,86,0.00,,,0.12,WUHU216HW,2013-05-05 04:41:00,
2013-05-04 23:46:00,43.7,39.8,29.97,West,270,0.0,0.0,86,0.00,,,0.12,WUHU216HW,2013-05-05 04:46:00,
2013-05-04 23:51:00,43.7,40.2,29.97,West,270,0.0,0.0,87,0.00,,,0.12,WUHU216HW,2013-05-05 04:51:00,
2013-05-04 23:56:00,43.9,40.3,29.97,WNW,293,0.2,0.2,87,0.00,,,0.12,WUHU216HW,2013-05-05 04:56:00,